Latest Weather Observations for Snowtown

IDS60801

Issued at 8:41 pm CDT Sunday 24 January 2021 (issued every 10 minutes, with the page automatically refreshed every 10 minutes)

About weather observations | Map of weather stations | Latest weather observations for SA | Other Formats
Station Details ID: 021133 Name: RAYVILLE PARK Lat: -33.77 Lon: 138.22 Height: 109.1 m
Data from the previous 72 hours. | See also: Recent months at Snowtown
Date/Time
CDT
Temp
°C
App
Temp
°C
Dew
Point
°C
Rel
Hum
%
Delta-T
°C
Wind Press
QNH
hPa
Press
MSL
hPa
Rain since
9am
mm
Dir  Spd
km/h
Gust
km/h
Spd
kts
Gust
kts
24/08:30pm 36.2 30.6 -0.2 10 18.2 WSW 19 22 10 12 1001.6 1001.1 0.0
24/08:00pm 37.7 32.0 -0.6 9 19.1 NW 19 35 10 19 1001.5 1001.0 0.0
24/07:30pm 37.8 34.6 1.0 10 19.0 WNW 7 15 4 8 1001.5 1001.0 0.0
24/07:00pm 39.4 34.6 -2.7 7 20.6 NW 13 17 7 9 1001.2 1000.7 0.0
24/06:30pm 40.2 34.4 -4.2 6 21.4 NW 17 20 9 11 1001.0 1000.5 0.0
24/06:00pm 41.1 34.7 -1.5 7 21.5 NW 22 30 12 16 1001.0 1000.5 0.0
24/05:30pm 41.9 35.2 -0.9 7 21.9 WNW 24 33 13 18 1001.1 1000.6 0.0
24/05:00pm 42.0 33.8 -0.9 7 21.9 WNW 32 50 17 27 1001.3 1000.8 0.0
24/04:56pm 41.8 33.6 -1.0 7 21.8 WNW 32 50 17 27 1001.4 1000.9 0.0
24/04:30pm 41.6 33.4 -1.1 7 21.8 NW 32 41 17 22 1001.6 1001.1 0.0
24/04:16pm 41.5 33.6 -1.2 7 21.6 NW 30 48 16 26 1001.7 1001.2 0.0
24/04:00pm 43.1 35.0 -0.1 7 22.5 WNW 32 43 17 23 1001.8 1001.3 0.0
24/03:31pm 42.4 34.3 -0.6 7 22.1 WNW 32 50 17 27 1002.2 1001.7 0.0
24/03:30pm 42.9 34.6 -0.2 7 22.4 WNW 33 50 18 27 1002.2 1001.7 0.0
24/03:00pm 42.2 34.4 -0.7 7 22.1 NW 30 46 16 25 1002.8 1002.3 0.0
24/02:39pm 42.4 34.4 -2.7 6 22.5 NNW 30 48 16 26 1003.1 1002.6 0.0
24/02:30pm 43.4 35.1 -2.0 6 23.1 NNW 32 44 17 24 1003.3 1002.7 0.0
24/02:01pm 42.1 33.7 -0.8 7 21.9 NW 33 52 18 28 1003.7 1003.2 0.0
24/02:00pm 42.4 33.7 -0.6 7 22.1 NW 35 52 19 28 1003.7 1003.2 0.0
24/01:51pm 42.0 33.8 -0.9 7 21.9 NW 32 52 17 28 1003.7 1003.2 0.0
24/01:30pm 41.7 33.2 0.8 8 21.4 NNW 35 46 19 25 1004.1 1003.6 0.0
24/01:00pm 41.4 32.8 0.5 8 21.2 NNW 35 50 19 27 1004.3 1003.8 0.0
24/12:30pm 40.8 32.2 0.1 8 21.0 NW 35 48 19 26 1004.6 1004.1 0.0
24/12:00pm 41.6 33.4 -1.1 7 21.7 NNW 32 43 17 23 1004.9 1004.4 0.0
24/11:30am 41.5 33.9 0.6 8 21.3 NNW 30 43 16 23 1005.2 1004.7 0.0
24/11:00am 40.3 31.6 -0.3 8 20.7 NNW 35 44 19 24 1005.4 1004.9 0.0
24/10:30am 39.9 31.8 -0.5 8 20.6 N 32 46 17 25 1005.6 1005.1 0.0
24/10:00am 38.7 31.2 -1.4 8 19.9 N 28 37 15 20 1005.9 1005.4 0.0
24/09:30am 36.6 30.0 -3.0 8 19.0 N 22 28 12 15 1006.1 1005.6 0.0
24/09:00am 34.6 28.8 -4.4 8 18.0 N 17 20 9 11 1006.1 1005.6 0.0
24/08:30am 33.6 27.3 -3.6 9 17.3 NNE 20 28 11 15 1006.2 1005.7 0.0
24/08:00am 33.5 26.1 -3.7 9 17.2 NNE 26 35 14 19 1006.1 1005.6 0.0
24/07:30am 30.6 25.2 -4.4 10 15.7 N 15 20 8 11 1006.1 1005.6 0.0
24/07:00am 27.1 21.3 -4.7 12 13.7 NNW 17 20 9 11 1006.0 1005.5 0.0
24/06:30am 25.4 19.9 -5.0 13 12.9 N 15 17 8 9 1005.7 1005.2 0.0
24/06:00am 26.9 21.2 -3.8 13 13.5 N 17 19 9 10 1005.6 1005.1 0.0
24/05:30am 26.4 21.0 -4.2 13 13.3 N 15 19 8 10 1005.4 1004.9 0.0
24/05:00am 27.8 22.6 -3.1 13 13.8 NNE 15 20 8 11 1005.5 1005.0 0.0
24/04:30am 26.8 21.8 -3.9 13 13.5 N 13 20 7 11 1005.5 1005.0 0.0
24/04:00am 27.3 22.4 -3.5 13 13.6 NNW 13 17 7 9 1005.6 1005.1 0.0
24/03:30am 28.7 23.8 -3.5 12 14.4 NNE 13 17 7 9 1005.9 1005.4 0.0
24/03:00am 28.4 24.6 -3.7 12 14.3 N 7 13 4 7 1006.1 1005.6 0.0
24/02:30am 29.8 25.8 -2.6 12 14.9 NNE 9 20 5 11 1006.3 1005.8 0.0
24/02:00am 25.5 21.9 -3.9 14 12.7 WNW 6 7 3 4 1006.5 1006.0 0.0
24/01:30am 27.5 23.9 -3.3 13 13.7 N 6 9 3 5 1006.7 1006.2 0.0
24/01:00am 24.1 20.7 -0.9 19 11.3 NW 7 9 4 5 1006.9 1006.4 0.0
24/12:30am 25.7 22.2 -1.2 17 12.3 NNW 7 9 4 5 1007.1 1006.6 0.0
24/12:00am 24.8 21.7 0.3 20 11.4 WNW 6 7 3 4 1007.2 1006.7 0.0
 
Date/Time
CDT
Temp
°C
App
Temp
°C
Dew
Point
°C
Rel
Hum
%
Delta-T
°C
Wind Press
QNH
hPa
Press
MSL
hPa
Rain since
9am
mm
Dir  Spd
km/h
Gust
km/h
Spd
kts
Gust
kts
23/11:30pm 25.9 21.6 1.2 20 11.8 SW 13 13 7 7 1007.3 1006.8 0.0
23/11:00pm 25.1 21.1 3.1 24 10.8 SW 13 17 7 9 1007.6 1007.1 0.0
23/10:30pm 25.7 22.2 3.6 24 11.0 SW 11 13 6 7 1007.9 1007.4 0.0
23/10:00pm 26.8 23.0 4.0 23 11.5 SSW 13 17 7 9 1007.8 1007.3 0.0
23/09:30pm 29.4 24.9 4.1 20 13.0 SSW 17 20 9 11 1007.5 1007.0 0.0
23/09:00pm 30.7 25.4 2.0 16 14.4 SSW 19 24 10 13 1007.2 1006.7 0.0
23/08:30pm 32.3 26.7 1.4 14 15.5 SSW 20 28 11 15 1006.7 1006.2 0.0
23/08:00pm 34.2 28.2 0.8 12 16.7 SSW 22 30 12 16 1006.4 1005.9 0.0
23/07:30pm 35.9 29.7 -0.5 10 18.1 SSW 22 32 12 17 1006.1 1005.6 0.0
23/07:00pm 37.3 30.1 0.6 10 18.6 SSW 28 35 15 19 1005.8 1005.3 0.0
23/06:30pm 39.8 33.1 -4.5 6 21.2 SSW 22 30 12 16 1005.6 1005.1 0.0
23/06:18pm 39.9 33.8 -2.4 7 20.8 SSE 20 33 11 18 1005.5 1005.0 0.0
23/06:00pm 40.5 35.7 -6.4 5 21.9 S 11 19 6 10 1005.6 1005.1 0.0
23/05:30pm 40.1 34.5 -6.7 5 21.7 SSW 15 20 8 11 1005.7 1005.2 0.0
23/05:00pm 40.8 36.4 -6.2 5 22.0 E 9 15 5 8 1005.8 1005.3 0.0
23/04:30pm 41.3 35.8 -5.8 5 22.3 SSW 15 22 8 12 1006.0 1005.5 0.0
23/04:00pm 41.5 36.3 -5.7 5 22.4 SW 13 30 7 16 1006.1 1005.6 0.0
23/03:30pm 40.0 34.0 -6.7 5 21.6 WNW 17 28 9 15 1006.4 1005.9 0.0
23/03:00pm 40.7 35.1 -6.3 5 22.0 SW 15 20 8 11 1006.8 1006.3 0.0
23/02:30pm 40.3 34.7 -6.5 5 21.8 W 15 28 8 15 1007.1 1006.6 0.0
23/02:00pm 39.0 32.9 -7.4 5 21.1 NNW 17 28 9 15 1007.5 1007.0 0.0
23/01:30pm 39.3 33.2 -7.2 5 21.3 NW 17 30 9 16 1007.8 1007.3 0.0
23/01:00pm 39.3 34.0 -7.2 5 21.2 WNW 13 22 7 12 1008.2 1007.7 0.0
23/12:30pm 38.8 32.0 -5.2 6 20.7 N 22 32 12 17 1008.6 1008.1 0.0
23/12:00pm 37.9 31.6 -5.8 6 20.2 N 19 28 10 15 1008.9 1008.4 0.0
23/11:30am 36.8 30.4 -6.6 6 19.6 NNE 19 32 10 17 1009.0 1008.5 0.0
23/11:00am 35.8 29.6 -3.5 8 18.5 NE 20 33 11 18 1009.3 1008.8 0.0
23/10:30am 34.5 28.1 -4.5 8 17.9 NE 20 32 11 17 1009.6 1009.1 0.0
23/10:00am 31.9 26.5 -4.9 9 16.5 NE 15 22 8 12 1009.9 1009.4 0.0
23/09:30am 30.0 23.8 -4.9 10 15.4 NNE 19 24 10 13 1010.2 1009.7 0.0
23/09:00am 27.9 22.2 -7.9 9 14.7 N 15 20 8 11 1010.5 1010.0 0.0
23/08:30am 26.4 20.7 -7.6 10 13.8 NNE 15 20 8 11 1010.4 1009.9 0.0
23/08:00am 24.8 20.8 -7.6 11 13.0 NNW 6 9 3 5 1010.5 1010.0 0.0
23/07:30am 20.1 17.7 -2.9 21 9.7 CALM 0 0 0 0 1010.3 1009.8 0.0
23/07:29am 20.0 17.6 -3.0 21 9.6 CALM 0 0 0 0 1010.3 1009.8 0.0
23/07:00am 14.9 11.3 -3.9 27 7.3 NW 6 7 3 4 1010.2 1009.7 0.0
23/06:30am 13.5 10.2 -4.2 29 6.8 WNW 4 7 2 4 1010.0 1009.5 0.0
23/06:00am 13.5 9.8 -3.3 31 6.5 NW 7 9 4 5 1009.9 1009.4 0.0
23/05:30am 14.7 11.9 -3.1 29 7.1 WNW 2 7 1 4 1010.0 1009.5 0.0
23/05:00am 15.1 11.6 -2.8 29 7.2 W 6 7 3 4 1009.8 1009.3 0.0
23/04:30am 15.4 13.0 4.2 47 5.2 NNE 6 9 3 5 1009.5 1009.0 0.0
23/04:00am 18.3 13.9 0.4 30 7.9 N 13 15 7 8 1009.7 1009.2 0.0
23/03:30am 16.9 13.5 5.8 48 5.4 N 13 15 7 8 1009.6 1009.1 0.0
23/03:00am 14.7 12.0 9.1 69 2.9 NW 13 17 7 9 1010.0 1009.5 0.0
23/02:30am 15.2 13.5 10.0 71 2.7 W 9 9 5 5 1010.1 1009.6 0.0
23/02:00am 14.9 13.7 9.5 70 2.8 SSE 6 6 3 3 1010.4 1009.9 0.0
23/01:30am 15.6 14.3 9.9 69 3.0 SSE 7 9 4 5 1010.4 1009.9 0.0
23/01:00am 18.1 17.3 12.8 71 3.0 SW 9 15 5 8 1010.6 1010.1 0.0
23/12:30am 18.6 16.7 13.0 70 3.2 SW 15 17 8 9 1010.9 1010.4 0.0
23/12:00am 17.8 16.3 11.8 68 3.3 SW 11 13 6 7 1011.1 1010.6 0.0
 
Date/Time
CDT
Temp
°C
App
Temp
°C
Dew
Point
°C
Rel
Hum
%
Delta-T
°C
Wind Press
QNH
hPa
Press
MSL
hPa
Rain since
9am
mm
Dir  Spd
km/h
Gust
km/h
Spd
kts
Gust
kts
22/11:30pm 18.2 16.7 10.6 61 4.1 SW 9 11 5 6 1011.2 1010.7 0.0
22/11:00pm 19.0 17.3 9.8 55 4.9 SSW 9 15 5 8 1011.3 1010.8 0.0
22/10:30pm 20.1 18.0 11.1 56 5.0 SSW 13 15 7 8 1011.2 1010.7 0.0
22/10:00pm 20.9 18.3 10.7 52 5.6 SW 15 19 8 10 1010.8 1010.3 0.0
22/09:30pm 22.1 19.3 9.9 46 6.7 SSW 15 20 8 11 1010.6 1010.1 0.0
22/09:00pm 23.1 18.8 7.2 36 8.3 SSW 19 24 10 13 1010.6 1010.1 0.0
22/08:30pm 24.8 20.7 6.1 30 9.7 SSW 17 24 9 13 1010.5 1010.0 0.0
22/08:00pm 27.2 21.5 3.0 21 12.0 SSW 22 32 12 17 1010.3 1009.8 0.0
22/07:30pm 29.0 21.8 -2.2 13 14.3 SSW 26 32 14 17 1010.1 1009.6 0.0
22/07:00pm 30.5 23.5 -3.3 11 15.4 S 24 35 13 19 1009.7 1009.2 0.0
22/06:30pm 32.3 24.6 -3.2 10 16.4 S 28 35 15 19 1009.4 1008.9 0.0
22/06:00pm 33.3 25.5 -1.1 11 16.6 SSW 30 39 16 21 1009.2 1008.7 0.0
22/05:30pm 33.5 25.7 -3.7 9 17.2 S 28 43 15 23 1009.3 1008.8 0.0
22/05:00pm 34.2 25.9 -1.7 10 17.2 S 32 44 17 24 1009.2 1008.7 0.0
22/04:30pm 34.9 27.4 -1.2 10 17.6 S 28 37 15 20 1009.3 1008.8 0.0
22/04:00pm 35.6 29.0 -3.7 8 18.4 SSW 22 37 12 20 1009.5 1009.0 0.0
22/03:30pm 35.4 28.0 -3.8 8 18.4 S 26 37 14 20 1009.6 1009.1 0.0
22/03:00pm 34.5 26.8 -2.9 9 17.7 S 28 35 15 19 1009.9 1009.4 0.0
22/02:30pm 36.3 30.3 -1.6 9 18.5 S 20 30 11 16 1009.9 1009.4 0.0
22/02:00pm 35.2 29.3 -1.0 10 17.7 SSW 20 32 11 17 1010.0 1009.5 0.0
22/01:30pm 34.7 28.3 1.1 12 17.0 SSW 24 35 13 19 1010.2 1009.7 0.0
22/01:00pm 34.3 28.3 -1.7 10 17.3 SSW 20 30 11 16 1010.4 1009.9 0.0
22/12:30pm 33.7 28.5 0.4 12 16.5 SE 17 24 9 13 1010.6 1010.1 0.0
22/12:00pm 33.5 29.5 0.2 12 16.4 SSE 11 19 6 10 1010.9 1010.4 0.0
22/11:30am 31.2 27.1 -0.5 13 15.2 S 11 20 6 11 1011.1 1010.6 0.0
22/11:00am 29.8 25.1 -1.5 13 14.6 S 13 20 7 11 1011.3 1010.8 0.0
22/10:30am 28.5 23.8 -1.6 14 13.9 S 13 20 7 11 1011.4 1010.9 0.0
22/10:00am 27.2 23.5 -2.6 14 13.4 ESE 7 11 4 6 1011.7 1011.3 0.0
22/09:30am 25.7 22.7 1.8 21 11.5 SE 7 11 4 6 1011.8 1011.4 0.0
22/09:00am 24.0 21.6 4.4 28 9.8 SE 6 7 3 4 1011.9 1011.5 0.0
22/08:30am 22.6 20.5 3.7 29 9.2 SE 4 7 2 4 1011.9 1011.5 0.0
22/08:00am 20.6 19.3 10.1 51 5.7 S 7 7 4 4 1011.8 1011.4 0.0
22/07:30am 18.5 17.6 12.5 68 3.4 SW 9 11 5 6 1011.6 1011.2 0.0
22/07:00am 13.7 10.7 6.1 60 3.6 SSW 11 13 6 7 1011.5 1011.1 0.0
22/06:30am 11.9 8.6 4.6 61 3.3 SW 11 13 6 7 1011.2 1010.7 0.0
22/06:00am 11.8 9.5 5.9 67 2.8 SW 7 9 4 5 1010.6 1010.1 0.0
22/05:30am 12.8 10.6 5.5 61 3.4 WSW 6 7 3 4 1010.4 1009.9 0.0
22/05:00am 12.8 10.8 6.4 65 3.1 SW 6 7 3 4 1010.0 1009.5 0.0
22/04:30am 11.2 9.8 5.3 67 2.7 SSE 2 9 1 5 1009.8 1009.3 0.0
22/04:00am 11.7 10.8 6.2 69 2.6 CALM 0 0 0 0 1009.6 1009.1 0.0
22/03:30am 11.7 11.0 6.8 72 2.4 CALM 0 0 0 0 1009.6 1009.1 0.0
22/03:00am 12.9 12.4 7.8 71 2.5 CALM 0 0 0 0 1009.7 1009.2 0.0
22/02:30am 14.6 13.5 9.8 73 2.5 SSE 6 7 3 4 1010.0 1009.5 0.0
22/02:00am 16.5 14.7 11.0 70 3.0 WSW 11 15 6 8 1010.1 1009.6 0.0
22/01:30am 17.8 15.1 11.6 67 3.4 SW 17 19 9 10 1010.4 1009.9 0.0
22/01:00am 17.3 15.0 11.8 70 3.0 WSW 15 17 8 9 1010.6 1010.1 0.0
22/12:30am 17.0 15.3 11.3 69 3.1 SW 11 13 6 7 1011.0 1010.5 0.0
22/12:00am 17.5 16.1 10.9 65 3.6 SW 9 11 5 6 1011.4 1010.9 0.0
 
Date/Time
CDT
Temp
°C
App
Temp
°C
Dew
Point
°C
Rel
Hum
%
Delta-T
°C
Wind Press
QNH
hPa
Press
MSL
hPa
Rain since
9am
mm
Dir  Spd
km/h
Gust
km/h
Spd
kts
Gust
kts
21/11:30pm 18.4 16.7 11.2 63 3.9 SW 11 15 6 8 1011.4 1010.9 0.0
21/11:00pm 18.5 16.2 10.6 60 4.3 SW 13 15 7 8 1011.2 1010.7 0.0
21/10:30pm 20.7 18.6 11.3 55 5.2 SW 13 17 7 9 1011.2 1010.7 0.0
21/10:00pm 22.3 19.3 10.8 48 6.4 SSW 17 22 9 12 1011.2 1010.7 0.0
21/09:30pm 23.5 19.2 8.0 37 8.2 SSW 20 26 11 14 1010.6 1010.1 0.0
21/09:00pm 24.6 19.8 7.3 33 9.1 SSW 22 28 12 15 1010.2 1009.7 0.0

Other formats

Comma delimited format used in spreadsheet applications
http://www.bom.gov.au/fwo/IDS60801/IDS60801.95670.axf

JavaScript Object Notation format (JSON) in row-major order
http://www.bom.gov.au/fwo/IDS60801/IDS60801.95670.json

Data quality

Most of these data are generated automatically and are frequently updated. Quality checks on data are not normally performed. It is possible for incorrect values to appear. Refer to information at About Latest Weather Observations and please check the disclaimer before using these data.